Time;durP1;ratioP1;P1;durP2;ratioP2;P2;SDS_P1;SDS_P2;PMS_P1;PMS_P2;Temp;Humidity;BMP_temperature;BMP_pressure;BME280_temperature;BME280_humidity;BME280_pressure;Samples;Min_cycle;Max_cycle;Signal;HPM_P1;HPM_P2
2021/10/22 00:01:57;;;;;;;5.28;1.23;;;19.80;52.40;;;;;;5113773;28;20467;-59
2021/10/22 00:04:22;;;;;;;6.15;1.55;;;19.80;52.50;;;;;;5095344;28;20071;-57
2021/10/22 00:06:48;;;;;;;4.65;0.90;;;19.80;52.50;;;;;;5113735;28;20119;-57
2021/10/22 00:09:14;;;;;;;5.78;1.30;;;19.80;52.40;;;;;;5113501;28;20023;-59
2021/10/22 00:11:44;;;;;;;4.57;1.08;;;19.80;52.40;;;;;;5113380;28;20379;-59
2021/10/22 00:14:11;;;;;;;5.57;1.25;;;19.80;52.50;;;;;;5113659;28;20019;-60
2021/10/22 00:16:37;;;;;;;5.20;1.27;;;19.80;52.30;;;;;;5095372;28;20027;-57
2021/10/22 00:19:03;;;;;;;2.97;0.80;;;19.80;52.40;;;;;;5113558;28;20020;-58
2021/10/22 00:21:29;;;;;;;4.25;1.17;;;19.80;52.60;;;;;;5113746;28;20053;-58
2021/10/22 00:23:54;;;;;;;7.13;1.55;;;19.80;52.30;;;;;;5113385;28;20024;-58
2021/10/22 00:26:20;;;;;;;6.35;1.27;;;19.80;52.40;;;;;;5113368;28;20031;-55
2021/10/22 00:28:46;;;;;;;4.80;1.42;;;19.80;52.40;;;;;;5113434;28;20020;-55
2021/10/22 00:31:11;;;;;;;4.30;1.15;;;19.80;52.40;;;;;;5113409;28;20027;-57
2021/10/22 00:33:38;;;;;;;4.25;1.05;;;19.80;52.30;;;;;;5113339;28;20038;-56
2021/10/22 00:36:05;;;;;;;4.70;1.10;;;19.80;52.40;;;;;;5113285;28;20024;-55
2021/10/22 00:38:31;;;;;;;6.75;1.40;;;19.80;52.40;;;;;;5113362;28;20070;-58
2021/10/22 00:40:57;;;;;;;3.92;0.93;;;19.70;52.50;;;;;;5091460;28;20087;-55
2021/10/22 00:43:23;;;;;;;5.82;1.30;;;19.80;52.20;;;;;;5092904;28;20055;-56
2021/10/22 00:45:51;;;;;;;5.97;1.25;;;19.70;52.20;;;;;;5093031;28;20035;-56
2021/10/22 00:48:19;;;;;;;4.55;1.33;;;19.80;52.30;;;;;;5092876;28;20024;-58
2021/10/22 00:50:51;;;;;;;3.67;1.08;;;19.70;52.20;;;;;;5092883;28;20024;-58
2021/10/22 00:53:17;;;;;;;5.95;1.50;;;19.70;52.20;;;;;;5091611;28;20024;-58
2021/10/22 00:55:43;;;;;;;5.03;1.45;;;19.70;52.30;;;;;;5092881;28;20368;-55
2021/10/22 00:58:10;;;;;;;5.65;1.52;;;19.70;52.20;;;;;;5093051;28;20035;-56
2021/10/22 01:00:36;;;;;;;5.18;1.40;;;19.70;52.20;;;;;;5092847;28;20020;-56
2021/10/22 01:03:03;;;;;;;4.30;1.08;;;19.70;52.20;;;;;;5091434;28;20558;-55
2021/10/22 01:05:29;;;;;;;4.50;1.23;;;19.70;52.20;;;;;;5092745;28;20043;-58
2021/10/22 01:07:55;;;;;;;5.93;1.30;;;19.70;52.20;;;;;;5092789;28;20103;-58
2021/10/22 01:10:20;;;;;;;4.25;1.00;;;19.70;52.20;;;;;;5092871;28;20033;-57
2021/10/22 01:12:46;;;;;;;4.22;1.20;;;19.70;52.20;;;;;;5092682;28;20024;-56
2021/10/22 01:15:12;;;;;;;5.82;1.52;;;19.70;52.10;;;;;;5092984;28;20039;-58
2021/10/22 01:17:44;;;;;;;4.38;1.27;;;19.70;52.30;;;;;;5092934;28;20093;-57
2021/10/22 01:20:21;;;;;;;3.75;1.20;;;19.70;52.10;;;;;;5092911;28;20024;-54
2021/10/22 01:22:50;;;;;;;10.25;1.55;;;19.70;52.20;;;;;;5095078;28;20028;-55
2021/10/22 01:25:18;;;;;;;3.88;1.27;;;19.70;52.00;;;;;;5096604;28;20111;-58
2021/10/22 01:27:45;;;;;;;5.07;1.30;;;19.70;52.20;;;;;;5096638;28;20387;-56
2021/10/22 01:30:13;;;;;;;4.82;1.27;;;19.70;52.10;;;;;;5096517;28;20024;-56
2021/10/22 01:32:39;;;;;;;3.67;1.00;;;19.60;52.20;;;;;;5096371;28;20034;-57
2021/10/22 01:35:07;;;;;;;4.53;1.42;;;19.60;52.10;;;;;;5096365;28;20079;-53
2021/10/22 01:37:33;;;;;;;7.75;1.55;;;19.60;52.20;;;;;;5096238;28;20022;-56
2021/10/22 01:39:59;;;;;;;5.25;1.02;;;19.70;52.00;;;;;;5102860;28;20051;-58
2021/10/22 01:42:25;;;;;;;6.15;1.67;;;19.60;52.00;;;;;;5098386;28;20479;-58
2021/10/22 01:44:51;;;;;;;4.78;1.30;;;19.60;52.10;;;;;;5116533;28;20035;-57
2021/10/22 01:47:17;;;;;;;4.82;1.40;;;19.60;52.10;;;;;;5116555;28;20035;-56
2021/10/22 01:49:43;;;;;;;4.97;1.23;;;19.60;52.00;;;;;;5116454;28;20026;-57
2021/10/22 01:52:09;;;;;;;5.50;1.45;;;19.60;52.00;;;;;;5116502;28;20032;-56
2021/10/22 01:54:35;;;;;;;6.50;1.23;;;19.60;52.00;;;;;;5116332;28;20035;-57
2021/10/22 01:57:01;;;;;;;5.43;1.42;;;19.60;52.10;;;;;;5116298;28;20027;-55
2021/10/22 01:59:26;;;;;;;7.78;1.20;;;19.60;52.00;;;;;;5098011;28;20446;-52
2021/10/22 02:01:53;;;;;;;6.80;1.20;;;19.60;52.00;;;;;;5097990;28;20421;-56
2021/10/22 02:04:18;;;;;;;5.22;1.08;;;19.60;52.10;;;;;;5116068;28;20032;-59
2021/10/22 02:06:44;;;;;;;5.80;1.35;;;19.60;52.10;;;;;;5116134;28;20150;-55
2021/10/22 02:09:10;;;;;;;6.38;1.35;;;19.60;52.00;;;;;;5115962;28;20070;-55
2021/10/22 02:11:36;;;;;;;4.85;1.33;;;19.60;52.00;;;;;;5097742;28;20076;-56
2021/10/22 02:14:01;;;;;;;4.88;1.40;;;19.60;51.90;;;;;;5116115;28;20433;-56
2021/10/22 02:16:27;;;;;;;4.55;1.20;;;19.60;51.90;;;;;;5116184;28;20059;-56
2021/10/22 02:18:53;;;;;;;7.10;1.63;;;19.60;51.90;;;;;;5115830;28;20049;-53
2021/10/22 02:21:19;;;;;;;5.40;1.38;;;19.60;51.80;;;;;;5115905;28;20015;-56
2021/10/22 02:23:44;;;;;;;4.72;1.15;;;19.60;52.00;;;;;;5115708;28;20019;-56
2021/10/22 02:26:10;;;;;;;4.88;1.30;;;19.60;52.00;;;;;;5116029;28;20509;-55
2021/10/22 02:28:36;;;;;;;4.30;1.00;;;19.60;51.90;;;;;;5115651;28;20390;-55
2021/10/22 02:31:01;;;;;;;5.18;1.27;;;19.60;51.90;;;;;;5097426;28;20423;-58
2021/10/22 02:33:27;;;;;;;4.15;1.23;;;19.60;51.80;;;;;;5115521;28;20035;-58
2021/10/22 02:35:52;;;;;;;7.15;1.33;;;19.60;51.90;;;;;;5115569;28;20059;-56
2021/10/22 02:38:18;;;;;;;6.03;1.50;;;19.60;51.80;;;;;;5115470;28;20084;-56
2021/10/22 02:40:43;;;;;;;4.80;1.20;;;19.60;51.90;;;;;;5115312;28;20052;-56
2021/10/22 02:43:09;;;;;;;3.90;1.08;;;19.60;51.80;;;;;;5115608;28;20538;-54
2021/10/22 02:45:35;;;;;;;5.22;1.30;;;19.60;51.80;;;;;;5115330;28;20036;-56
2021/10/22 02:48:00;;;;;;;4.53;1.20;;;19.60;51.80;;;;;;5115291;28;20020;-58
2021/10/22 02:50:26;;;;;;;6.18;1.42;;;19.60;51.70;;;;;;5115213;28;20031;-59
2021/10/22 02:52:52;;;;;;;5.05;1.52;;;19.60;51.80;;;;;;5115009;28;20027;-56
2021/10/22 02:55:18;;;;;;;5.85;1.45;;;19.60;51.80;;;;;;5115343;28;20073;-53
2021/10/22 02:57:44;;;;;;;5.55;1.35;;;19.60;51.70;;;;;;5115082;28;20015;-57
2021/10/22 03:00:11;;;;;;;5.18;1.30;;;19.60;51.80;;;;;;5115032;28;20490;-57
2021/10/22 03:02:40;;;;;;;3.50;1.23;;;19.50;51.70;;;;;;5115008;28;20246;-59
2021/10/22 03:05:10;;;;;;;3.30;1.15;;;19.50;51.70;;;;;;5114901;28;20027;-57
2021/10/22 03:07:36;;;;;;;5.28;1.40;;;19.50;51.70;;;;;;5114919;28;20061;-57
2021/10/22 03:10:04;;;;;;;4.07;1.10;;;19.50;51.70;;;;;;5114881;28;20023;-57
2021/10/22 03:12:29;;;;;;;6.40;1.60;;;19.50;51.70;;;;;;5114761;28;20034;-57
2021/10/22 03:14:55;;;;;;;5.00;1.30;;;19.50;51.70;;;;;;5114718;28;20028;-58
2021/10/22 03:17:20;;;;;;;4.63;1.48;;;19.50;51.60;;;;;;5114584;28;20019;-57
2021/10/22 03:19:46;;;;;;;5.20;1.35;;;19.50;51.70;;;;;;5114558;28;20106;-56
2021/10/22 03:22:11;;;;;;;5.25;1.20;;;19.50;51.60;;;;;;5114495;28;20348;-57
2021/10/22 03:24:37;;;;;;;4.95;1.33;;;19.50;51.70;;;;;;5114300;28;20036;-56
2021/10/22 03:27:04;;;;;;;4.93;1.15;;;19.50;51.70;;;;;;5114669;28;20030;-55
2021/10/22 03:29:30;;;;;;;7.25;1.40;;;19.50;51.70;;;;;;5114335;28;20110;-57
2021/10/22 03:31:56;;;;;;;3.22;1.15;;;19.50;51.60;;;;;;5114626;28;20074;-58
2021/10/22 03:34:22;;;;;;;4.95;1.50;;;19.50;51.70;;;;;;5114368;28;20487;-57
2021/10/22 03:36:47;;;;;;;4.95;1.13;;;19.50;51.60;;;;;;5114267;28;20505;-57
2021/10/22 03:39:13;;;;;;;4.43;1.40;;;19.50;51.70;;;;;;5114030;28;20034;-56
2021/10/22 03:41:38;;;;;;;5.00;1.20;;;19.50;51.60;;;;;;5114193;28;20046;-56
2021/10/22 03:44:04;;;;;;;5.30;1.60;;;19.50;51.70;;;;;;5113868;28;20471;-59
2021/10/22 03:46:29;;;;;;;5.25;1.20;;;19.50;51.60;;;;;;5113607;28;20076;-56
2021/10/22 03:48:55;;;;;;;5.22;1.20;;;19.50;51.60;;;;;;5114056;28;20028;-57
2021/10/22 03:51:20;;;;;;;4.70;1.27;;;19.50;51.60;;;;;;5114065;28;20026;-56
2021/10/22 03:53:46;;;;;;;6.60;1.73;;;19.50;51.60;;;;;;5113911;28;20031;-58
2021/10/22 03:56:11;;;;;;;5.97;1.38;;;19.50;51.50;;;;;;5113946;28;20019;-55
2021/10/22 03:58:37;;;;;;;6.35;1.60;;;19.50;51.60;;;;;;5114179;28;20051;-54
2021/10/22 04:01:02;;;;;;;4.30;1.27;;;19.50;51.50;;;;;;5113865;28;20487;-56
2021/10/22 04:03:28;;;;;;;3.65;1.17;;;19.50;51.50;;;;;;5113864;28;20034;-57
2021/10/22 04:05:53;;;;;;;4.97;1.20;;;19.50;51.60;;;;;;5113990;28;20039;-57
2021/10/22 04:08:20;;;;;;;3.67;1.15;;;19.50;51.50;;;;;;5113952;28;20474;-57
2021/10/22 04:10:45;;;;;;;7.85;1.55;;;19.40;51.50;;;;;;5113746;28;20031;-55
2021/10/22 04:13:11;;;;;;;4.35;1.30;;;19.50;51.50;;;;;;5113685;28;20016;-56
2021/10/22 04:15:40;;;;;;;4.90;1.60;;;19.50;51.40;;;;;;5113541;28;20020;-57
2021/10/22 04:18:06;;;;;;;5.97;1.30;;;19.50;51.50;;;;;;5113532;28;20057;-57
2021/10/22 04:20:32;;;;;;;5.55;1.40;;;19.50;51.40;;;;;;5113505;28;20043;-56
2021/10/22 04:22:59;;;;;;;3.22;1.27;;;19.50;51.40;;;;;;5113766;28;20031;-54
2021/10/22 04:25:26;;;;;;;4.38;1.23;;;19.50;51.30;;;;;;5113430;28;20032;-57
2021/10/22 04:27:52;;;;;;;4.22;1.38;;;19.50;51.30;;;;;;5113425;28;20094;-54
2021/10/22 04:30:17;;;;;;;4.15;1.27;;;19.50;51.20;;;;;;5113674;28;20481;-57
2021/10/22 04:32:43;;;;;;;7.35;1.45;;;19.60;51.20;;;;;;5113454;28;20032;-56
2021/10/22 04:35:09;;;;;;;4.95;1.40;;;19.60;51.10;;;;;;5113444;28;20020;-56
2021/10/22 04:37:45;;;;;;;4.97;1.20;;;19.60;51.20;;;;;;5113644;28;20098;-59
2021/10/22 04:40:31;;;;;;;4.65;1.35;;;19.60;51.20;;;;;;5113294;28;20043;-57
2021/10/22 04:43:04;;;;;;;4.57;1.33;;;19.60;51.20;;;;;;5095119;28;20110;-54
2021/10/22 04:45:31;;;;;;;4.75;1.00;;;19.60;51.20;;;;;;5113215;28;20038;-53
2021/10/22 04:47:58;;;;;;;4.65;1.35;;;19.60;51.10;;;;;;5113279;28;20494;-56
2021/10/22 04:50:24;;;;;;;5.10;1.48;;;19.60;51.20;;;;;;5113288;28;20110;-55
2021/10/22 04:52:54;;;;;;;4.38;1.35;;;19.60;51.20;;;;;;5113151;28;20104;-56
2021/10/22 04:55:21;;;;;;;3.50;0.95;;;19.60;51.10;;;;;;5113268;28;20020;-53
2021/10/22 04:57:46;;;;;;;4.75;1.30;;;19.70;51.10;;;;;;5117095;28;20471;-57
2021/10/22 05:00:12;;;;;;;4.78;1.60;;;19.60;51.10;;;;;;5117390;28;20035;-55
2021/10/22 05:02:38;;;;;;;4.63;1.20;;;19.60;50.90;;;;;;5117309;28;20036;-56
2021/10/22 05:05:04;;;;;;;4.53;1.40;;;19.60;51.00;;;;;;5117206;28;20067;-57
2021/10/22 05:07:30;;;;;;;4.45;1.25;;;19.70;51.00;;;;;;5117120;28;20049;-56
2021/10/22 05:09:55;;;;;;;6.55;1.40;;;19.60;51.00;;;;;;5117136;28;20099;-57
2021/10/22 05:12:22;;;;;;;5.95;1.30;;;19.70;50.90;;;;;;5117167;28;20029;-54
2021/10/22 05:14:48;;;;;;;5.13;1.10;;;19.60;50.90;;;;;;5117001;28;20545;-54
2021/10/22 05:17:13;;;;;;;6.40;1.30;;;19.70;50.90;;;;;;5116935;28;20116;-52
2021/10/22 05:19:39;;;;;;;3.65;1.20;;;19.70;50.90;;;;;;5116952;28;20027;-52
2021/10/22 05:22:05;;;;;;;5.85;1.30;;;19.70;50.90;;;;;;5116713;28;20026;-52
2021/10/22 05:24:31;;;;;;;4.30;1.20;;;19.70;50.90;;;;;;5116678;28;20067;-52
2021/10/22 05:26:56;;;;;;;5.88;1.70;;;19.70;50.80;;;;;;5116708;28;20032;-56
2021/10/22 05:29:22;;;;;;;4.65;1.40;;;19.70;50.80;;;;;;5116706;28;20093;-57
2021/10/22 05:31:47;;;;;;;5.95;1.42;;;19.70;50.90;;;;;;5116671;28;20024;-55
2021/10/22 05:34:13;;;;;;;6.05;1.67;;;19.70;50.80;;;;;;5117106;28;20103;-53
2021/10/22 05:36:38;;;;;;;4.35;1.20;;;19.70;50.80;;;;;;5116340;28;20015;-52
2021/10/22 05:39:04;;;;;;;4.93;1.40;;;19.70;50.70;;;;;;5116529;28;20028;-56
2021/10/22 05:41:29;;;;;;;5.00;1.13;;;19.70;50.70;;;;;;5116284;28;20443;-52
2021/10/22 05:43:55;;;;;;;5.70;1.30;;;19.70;50.70;;;;;;5116388;28;20023;-55
2021/10/22 05:46:21;;;;;;;3.65;1.50;;;19.70;50.80;;;;;;5116339;28;20493;-56
2021/10/22 05:48:47;;;;;;;5.55;1.52;;;19.70;50.70;;;;;;5116322;28;20032;-55
2021/10/22 05:51:13;;;;;;;7.38;1.70;;;19.70;50.70;;;;;;5116264;28;20028;-56
2021/10/22 05:53:40;;;;;;;5.15;1.30;;;19.70;50.70;;;;;;5116266;28;20024;-57
2021/10/22 05:56:07;;;;;;;5.15;1.55;;;19.70;50.60;;;;;;5097976;28;20099;-57
2021/10/22 05:58:33;;;;;;;4.22;1.08;;;19.70;50.50;;;;;;5116374;28;20031;-59
2021/10/22 06:00:59;;;;;;;4.75;1.20;;;19.70;50.70;;;;;;5116530;28;20020;-58
2021/10/22 06:03:24;;;;;;;4.97;1.20;;;19.70;50.60;;;;;;5097779;28;20478;-56
2021/10/22 06:05:53;;;;;;;3.55;1.10;;;19.70;50.50;;;;;;5115907;28;20618;-55
2021/10/22 06:08:20;;;;;;;4.07;1.08;;;19.70;50.50;;;;;;5115221;28;20038;-56
2021/10/22 06:10:46;;;;;;;3.47;1.20;;;19.70;50.50;;;;;;5115889;28;20494;-58
2021/10/22 06:13:14;;;;;;;3.78;1.05;;;19.70;50.60;;;;;;5115580;28;20039;-56
2021/10/22 06:15:40;;;;;;;5.90;1.70;;;19.70;50.50;;;;;;5115761;28;20016;-56
2021/10/22 06:18:05;;;;;;;5.50;1.30;;;19.80;50.50;;;;;;5115777;28;20110;-57
2021/10/22 06:20:40;;;;;;;4.72;1.20;;;19.70;50.50;;;;;;5115665;28;20380;-56
2021/10/22 06:25:42;;;;;;;4.00;1.15;;;19.70;50.50;;;;;;5115754;28;20031;-55
2021/10/22 06:28:11;;;;;;;4.40;0.98;;;19.80;50.50;;;;;;5115568;28;20027;-53
2021/10/22 06:30:38;;;;;;;3.65;1.15;;;19.70;50.40;;;;;;5115796;28;20035;-57
2021/10/22 06:33:03;;;;;;;6.40;1.48;;;19.70;50.50;;;;;;5115496;28;20027;-56
2021/10/22 06:35:29;;;;;;;4.93;1.33;;;19.70;50.40;;;;;;5115400;28;20395;-56
2021/10/22 06:37:55;;;;;;;5.95;1.60;;;19.70;50.30;;;;;;5115397;28;20023;-58
2021/10/22 06:40:21;;;;;;;4.00;1.35;;;19.70;50.40;;;;;;5115083;28;20043;-56
2021/10/22 06:42:47;;;;;;;6.35;1.30;;;19.70;50.50;;;;;;5115315;28;20020;-58
2021/10/22 06:45:13;;;;;;;5.32;1.08;;;19.80;50.40;;;;;;5115108;28;20034;-54
2021/10/22 06:47:39;;;;;;;5.28;1.30;;;19.70;50.30;;;;;;5115080;28;20471;-59
2021/10/22 06:50:05;;;;;;;4.47;1.10;;;19.80;50.30;;;;;;5115108;28;20450;-53
2021/10/22 06:52:31;;;;;;;4.53;1.40;;;19.80;50.30;;;;;;5115089;28;20062;-56
2021/10/22 06:54:57;;;;;;;3.22;1.00;;;19.80;50.40;;;;;;5115085;28;20055;-52
2021/10/22 06:57:23;;;;;;;4.60;1.08;;;19.80;50.30;;;;;;5114882;28;20020;-55
2021/10/22 06:59:48;;;;;;;5.88;1.40;;;19.80;50.30;;;;;;5096992;28;20031;-53
2021/10/22 07:02:14;;;;;;;3.58;1.13;;;19.80;50.30;;;;;;5114999;28;20024;-55
2021/10/22 07:04:47;;;;;;;5.18;1.40;;;19.80;50.30;;;;;;5114839;28;20079;-58
2021/10/22 07:07:16;;;;;;;3.25;1.02;;;19.80;50.10;;;;;;5114798;28;20032;-58
2021/10/22 07:09:44;;;;;;;6.40;1.20;;;19.80;50.20;;;;;;5114775;28;20498;-56
2021/10/22 07:12:11;;;;;;;4.82;1.15;;;19.80;50.20;;;;;;5114834;28;20032;-57
2021/10/22 07:14:38;;;;;;;3.90;1.20;;;19.80;50.20;;;;;;5114601;28;20015;-58
2021/10/22 07:17:04;;;;;;;5.47;1.20;;;19.80;50.20;;;;;;5114713;28;20030;-56
2021/10/22 07:19:35;;;;;;;7.38;1.38;;;19.80;50.20;;;;;;5113607;28;20094;-56
2021/10/22 07:22:06;;;;;;;3.10;1.08;;;19.80;50.10;;;;;;5114748;28;20020;-56
2021/10/22 07:24:32;;;;;;;5.45;1.08;;;19.80;50.10;;;;;;5114678;28;20433;-55
2021/10/22 07:27:01;;;;;;;3.10;1.02;;;19.80;50.10;;;;;;5114899;28;20072;-56
2021/10/22 07:29:30;;;;;;;4.38;1.10;;;19.90;50.10;;;;;;5114415;28;20057;-56
2021/10/22 07:31:56;;;;;;;3.72;1.02;;;19.80;50.00;;;;;;5114712;28;20028;-58
2021/10/22 07:34:22;;;;;;;3.95;1.20;;;19.90;50.00;;;;;;5114852;28;20019;-56
2021/10/22 07:36:50;;;;;;;4.78;1.50;;;19.90;50.00;;;;;;5115040;28;20027;-58
2021/10/22 07:39:16;;;;;;;5.10;1.10;;;19.90;49.80;;;;;;5114222;28;20019;-54
2021/10/22 07:41:50;;;;;;;5.20;1.13;;;19.90;49.90;;;;;;5070103;28;20890;-56
2021/10/22 07:44:15;;;;;;;4.75;1.02;;;19.90;50.00;;;;;;5070279;28;20027;-56
2021/10/22 07:46:43;;;;;;;3.25;1.10;;;19.90;49.90;;;;;;5070419;28;20368;-55
2021/10/22 07:49:10;;;;;;;5.55;1.45;;;19.90;49.80;;;;;;5070670;28;20037;-53
2021/10/22 07:51:35;;;;;;;3.80;1.27;;;19.90;49.70;;;;;;5070698;28;20052;-56
2021/10/22 07:54:01;;;;;;;5.97;1.27;;;19.90;49.70;;;;;;5070074;28;20353;-55
2021/10/22 07:56:26;;;;;;;4.75;1.17;;;20.00;49.90;;;;;;5069795;28;20020;-53
2021/10/22 07:58:52;;;;;;;4.10;1.27;;;19.90;49.80;;;;;;5070163;28;20028;-55
2021/10/22 08:01:19;;;;;;;5.13;1.25;;;20.00;49.80;;;;;;5069624;28;20079;-56
2021/10/22 08:03:46;;;;;;;4.55;1.30;;;20.00;49.90;;;;;;5069816;28;20025;-54
2021/10/22 08:06:13;;;;;;;5.80;1.70;;;20.00;49.80;;;;;;5069839;28;20044;-55
2021/10/22 08:08:41;;;;;;;4.75;1.38;;;19.90;49.80;;;;;;5069681;28;20035;-55
2021/10/22 08:11:06;;;;;;;4.20;1.30;;;20.00;49.80;;;;;;5069665;28;20027;-55
2021/10/22 08:13:32;;;;;;;4.57;1.20;;;19.90;49.80;;;;;;5069625;28;20059;-56
2021/10/22 08:15:58;;;;;;;4.50;1.20;;;19.90;49.90;;;;;;5069805;28;20033;-55
2021/10/22 08:18:23;;;;;;;5.50;1.63;;;19.90;50.00;;;;;;5069910;28;20345;-55
2021/10/22 08:20:59;;;;;;;4.60;1.38;;;19.90;49.90;;;;;;5069463;28;20068;-54
2021/10/22 08:23:25;;;;;;;4.50;1.33;;;19.90;49.90;;;;;;5069466;28;20063;-53
2021/10/22 08:25:51;;;;;;;4.15;1.20;;;19.90;49.90;;;;;;5069288;28;20495;-54
2021/10/22 08:28:17;;;;;;;5.20;1.30;;;19.90;49.90;;;;;;5069237;28;20051;-57
2021/10/22 08:30:44;;;;;;;4.43;1.35;;;20.00;49.80;;;;;;5069220;28;20029;-53
2021/10/22 08:33:11;;;;;;;2.90;0.90;;;19.90;49.90;;;;;;5069075;28;20130;-57
2021/10/22 08:35:37;;;;;;;4.35;1.50;;;19.90;49.80;;;;;;5069327;28;20021;-56
2021/10/22 08:38:06;;;;;;;3.50;0.90;;;19.90;49.90;;;;;;5069125;28;20028;-54
2021/10/22 08:40:32;;;;;;;5.80;1.30;;;20.00;49.90;;;;;;5068912;28;20036;-55
2021/10/22 08:42:58;;;;;;;2.95;0.88;;;20.00;49.80;;;;;;5069011;28;20087;-55
2021/10/22 08:45:23;;;;;;;4.22;1.08;;;20.00;49.80;;;;;;5069063;28;20024;-55
2021/10/22 08:47:49;;;;;;;5.88;1.52;;;20.00;49.80;;;;;;5068772;28;20483;-55
2021/10/22 08:50:18;;;;;;;2.88;0.80;;;19.90;49.70;;;;;;5068905;28;20474;-55
2021/10/22 08:52:45;;;;;;;5.70;1.30;;;20.00;49.80;;;;;;5057898;28;20025;-56
2021/10/22 08:55:12;;;;;;;4.63;1.13;;;20.00;49.70;;;;;;5055658;28;20104;-59
2021/10/22 08:57:42;;;;;;;3.60;1.10;;;20.00;49.70;;;;;;5055374;28;20025;-54
2021/10/22 09:00:12;;;;;;;4.18;0.95;;;20.00;49.70;;;;;;5055295;28;20052;-55
2021/10/22 09:02:37;;;;;;;3.97;0.95;;;20.00;49.90;;;;;;5055318;28;20481;-55
2021/10/22 09:05:20;;;;;;;4.95;1.13;;;20.00;49.70;;;;;;5055560;28;20052;-57
2021/10/22 09:07:48;;;;;;;5.28;1.30;;;20.00;49.70;;;;;;5055256;28;20075;-55
2021/10/22 09:10:19;;;;;;;4.03;0.98;;;20.00;49.70;;;;;;5055178;28;20021;-56
2021/10/22 09:12:54;;;;;;;3.05;0.90;;;20.00;49.60;;;;;;5055069;28;20060;-56
2021/10/22 09:15:23;;;;;;;4.18;1.10;;;20.00;49.60;;;;;;5055011;28;20029;-56
2021/10/22 09:17:49;;;;;;;4.22;1.02;;;20.00;49.60;;;;;;5055052;28;20491;-57
2021/10/22 09:20:16;;;;;;;4.38;1.20;;;20.00;49.60;;;;;;5055031;28;20038;-56
2021/10/22 09:22:52;;;;;;;6.00;1.55;;;20.00;49.70;;;;;;5053592;28;20029;-55
2021/10/22 09:25:23;;;;;;;7.63;1.60;;;20.00;49.70;;;;;;5054844;28;20028;-55
2021/10/22 09:27:57;;;;;;;4.47;1.30;;;20.00;49.70;;;;;;5054814;28;20025;-55
2021/10/22 09:30:42;;;;;;;4.13;1.30;;;20.00;49.70;;;;;;5054836;28;20499;-57
2021/10/22 09:33:11;;;;;;;5.65;1.02;;;20.00;49.60;;;;;;5054805;28;20539;-56
2021/10/22 09:35:43;;;;;;;4.32;1.10;;;20.00;49.50;;;;;;5054661;28;20032;-55
2021/10/22 09:38:20;;;;;;;3.55;1.08;;;20.00;49.50;;;;;;5054678;28;20065;-56
2021/10/22 09:40:53;;;;;;;4.32;1.25;;;20.00;49.40;;;;;;5053403;28;20408;-56
2021/10/22 09:43:23;;;;;;;3.50;1.17;;;20.10;49.40;;;;;;5054604;28;20072;-54
2021/10/22 09:45:51;;;;;;;5.30;1.15;;;20.10;49.50;;;;;;5054518;28;20028;-59
2021/10/22 09:48:30;;;;;;;4.32;0.88;;;20.10;49.50;;;;;;5054676;28;20025;-59
2021/10/22 09:51:31;;;;;;;5.78;1.20;;;20.10;49.40;;;;;;5054377;28;20017;-57
2021/10/22 09:54:17;;;;;;;2.33;0.75;;;20.10;49.40;;;;;;5053063;28;20029;-57
2021/10/22 09:56:53;;;;;;;2.25;0.75;;;20.10;49.40;;;;;;5054021;28;20103;-54
2021/10/22 09:59:24;;;;;;;3.90;1.02;;;20.20;49.30;;;;;;5054156;28;20021;-50
2021/10/22 10:01:54;;;;;;;5.15;1.48;;;20.20;49.40;;;;;;5052779;28;20036;-54
2021/10/22 10:04:23;;;;;;;3.22;1.02;;;20.20;49.40;;;;;;5053069;28;20025;-53
2021/10/22 10:06:50;;;;;;;3.72;1.13;;;20.20;49.50;;;;;;5054009;28;20052;-54
2021/10/22 10:09:16;;;;;;;4.18;1.33;;;20.20;49.50;;;;;;5052784;28;20551;-58
2021/10/22 10:11:42;;;;;;;6.00;1.20;;;20.20;49.50;;;;;;5053912;28;20021;-54
2021/10/22 10:14:11;;;;;;;4.97;1.17;;;20.20;49.40;;;;;;5053914;28;20118;-54
2021/10/22 10:16:38;;;;;;;4.85;1.13;;;20.20;49.20;;;;;;5053741;28;20148;-54
2021/10/22 10:19:12;;;;;;;3.90;0.90;;;20.20;49.30;;;;;;5053787;28;20057;-55
2021/10/22 10:21:49;;;;;;;5.35;1.10;;;20.30;49.30;;;;;;5053745;28;20036;-54
2021/10/22 10:24:19;;;;;;;4.53;1.20;;;20.20;49.40;;;;;;5053660;28;20033;-57
2021/10/22 10:27:10;;;;;;;2.88;0.63;;;20.20;49.20;;;;;;5053854;28;20043;-55
2021/10/22 10:29:51;;;;;;;1.30;0.52;;;20.20;49.30;;;;;;5053475;28;20585;-57
2021/10/22 10:32:22;;;;;;;3.20;0.90;;;20.30;49.30;;;;;;5053752;28;20195;-55
2021/10/22 10:34:51;;;;;;;4.07;1.00;;;20.30;49.20;;;;;;5053642;28;20025;-56
2021/10/22 10:37:36;;;;;;;4.60;1.15;;;20.30;49.30;;;;;;5053521;28;20031;-55
2021/10/22 10:40:33;;;;;;;2.90;0.52;;;20.30;49.40;;;;;;5053582;28;20056;-56
2021/10/22 10:43:01;;;;;;;4.55;0.90;;;20.20;49.50;;;;;;5053085;28;20033;-56
2021/10/22 10:45:27;;;;;;;3.75;1.05;;;20.20;49.40;;;;;;5053381;28;20530;-55
2021/10/22 10:48:06;;;;;;;3.67;0.90;;;20.30;49.40;;;;;;5053349;28;20025;-54
2021/10/22 10:51:04;;;;;;;2.65;0.90;;;20.20;49.40;;;;;;5053655;28;20032;-56
2021/10/22 10:53:38;;;;;;;3.90;1.20;;;20.20;49.40;;;;;;5053117;28;20419;-54
2021/10/22 10:56:07;;;;;;;2.75;0.65;;;20.20;49.30;;;;;;5053117;28;20082;-54
2021/10/22 10:58:42;;;;;;;3.20;1.05;;;20.20;49.50;;;;;;5053081;28;20032;-54
2021/10/22 11:01:24;;;;;;;3.95;1.10;;;20.20;49.40;;;;;;5053543;28;20036;-56
2021/10/22 11:03:50;;;;;;;2.53;0.93;;;20.20;49.50;;;;;;5053089;28;20021;-55
2021/10/22 11:06:36;;;;;;;4.95;1.20;;;20.10;49.60;;;;;;5053290;28;20049;-54
2021/10/22 11:09:04;;;;;;;2.92;0.73;;;20.10;49.60;;;;;;5053032;28;20025;-55
2021/10/22 11:11:33;;;;;;;2.88;0.75;;;20.10;49.60;;;;;;5053001;28;20453;-54
2021/10/22 11:14:02;;;;;;;3.90;0.80;;;20.10;49.70;;;;;;5053207;28;20033;-54
2021/10/22 11:19:11;;;;;;;4.35;1.08;;;20.10;49.50;;;;;;5052881;28;20380;-54
2021/10/22 11:21:40;;;;;;;3.92;1.08;;;20.10;49.40;;;;;;5052842;28;20029;-56
2021/10/22 11:24:08;;;;;;;2.53;0.70;;;20.10;49.50;;;;;;5052768;28;20051;-55
2021/10/22 11:26:34;;;;;;;3.28;1.00;;;20.00;49.50;;;;;;5052567;28;20051;-57
2021/10/22 11:29:11;;;;;;;4.68;1.15;;;20.00;49.50;;;;;;5052730;28;20517;-56
2021/10/22 11:31:43;;;;;;;1.88;0.60;;;20.00;49.60;;;;;;5052972;28;20067;-55
2021/10/22 11:34:35;;;;;;;4.03;1.30;;;20.00;49.60;;;;;;5052834;28;20087;-57
2021/10/22 11:37:06;;;;;;;5.13;1.10;;;20.00;49.50;;;;;;5050005;28;20033;-55
2021/10/22 11:39:41;;;;;;;5.38;1.02;;;20.00;49.60;;;;;;5052461;28;20476;-57
2021/10/22 11:42:14;;;;;;;3.17;0.93;;;20.00;49.60;;;;;;5052755;28;20049;-55
2021/10/22 11:44:54;;;;;;;3.17;0.80;;;20.00;49.50;;;;;;5052692;28;20385;-55
2021/10/22 11:47:21;;;;;;;2.00;0.52;;;20.00;49.50;;;;;;5052699;28;20068;-54
2021/10/22 11:49:47;;;;;;;3.30;1.02;;;20.00;49.70;;;;;;5052695;28;20388;-57
2021/10/22 11:52:16;;;;;;;3.65;1.00;;;20.00;49.60;;;;;;5052553;28;20025;-53
2021/10/22 11:54:44;;;;;;;6.68;1.05;;;20.00;49.50;;;;;;5052824;28;20025;-56
2021/10/22 11:57:24;;;;;;;3.15;0.80;;;20.00;49.60;;;;;;5052682;28;20078;-53
2021/10/22 11:59:55;;;;;;;4.13;1.25;;;20.00;49.50;;;;;;5052481;28;20029;-58
2021/10/22 12:02:24;;;;;;;6.47;1.10;;;20.00;49.60;;;;;;5052480;28;20447;-56
2021/10/22 12:05:21;;;;;;;3.55;1.00;;;20.00;49.60;;;;;;5052385;28;20020;-58
2021/10/22 12:07:49;;;;;;;5.32;1.10;;;20.00;49.50;;;;;;5051252;28;20037;-57
2021/10/22 12:10:15;;;;;;;3.90;0.98;;;20.00;49.50;;;;;;5052318;28;20483;-54
2021/10/22 12:12:51;;;;;;;2.40;0.70;;;20.00;49.60;;;;;;5052102;28;20033;-53
2021/10/22 12:15:19;;;;;;;3.42;0.90;;;20.00;49.50;;;;;;5052302;28;20032;-55
2021/10/22 12:17:46;;;;;;;4.18;1.17;;;20.10;49.50;;;;;;5052138;28;20472;-53
2021/10/22 12:20:13;;;;;;;4.38;1.00;;;20.00;49.50;;;;;;5052052;28;20029;-53
2021/10/22 12:22:40;;;;;;;3.05;0.82;;;20.00;49.50;;;;;;5052057;28;20029;-51
2021/10/22 12:25:17;;;;;;;3.78;1.17;;;20.10;49.50;;;;;;5052138;28;20362;-56
2021/10/22 12:27:54;;;;;;;3.10;0.80;;;20.10;49.50;;;;;;5054775;28;20025;-57
2021/10/22 12:30:22;;;;;;;3.65;1.02;;;20.10;49.50;;;;;;5056026;28;20358;-54
2021/10/22 12:32:50;;;;;;;4.45;0.82;;;20.10;49.50;;;;;;5056029;28;20025;-54
2021/10/22 12:35:25;;;;;;;1.35;0.52;;;20.10;49.50;;;;;;5055911;28;20037;-55
2021/10/22 12:37:59;;;;;;;4.57;1.05;;;20.10;49.50;;;;;;5056080;28;20024;-54
2021/10/22 12:40:26;;;;;;;3.03;0.82;;;20.10;49.50;;;;;;5055811;28;20048;-55
2021/10/22 12:43:26;;;;;;;1.33;0.47;;;20.10;49.50;;;;;;5055611;28;20044;-56
2021/10/22 12:46:04;;;;;;;2.67;0.75;;;20.10;49.50;;;;;;5055407;28;20036;-59
2021/10/22 12:48:38;;;;;;;1.55;0.70;;;20.10;49.50;;;;;;5055857;28;20040;-56
2021/10/22 12:51:08;;;;;;;2.22;0.65;;;20.00;49.50;;;;;;5055560;28;20021;-52
2021/10/22 12:53:37;;;;;;;3.30;0.80;;;20.10;49.50;;;;;;5055684;28;20038;-54
2021/10/22 12:56:07;;;;;;;1.95;0.50;;;20.10;49.50;;;;;;5055506;28;20376;-56
2021/10/22 12:58:33;;;;;;;3.78;0.90;;;20.10;49.50;;;;;;5055401;28;20496;-55
2021/10/22 13:01:04;;;;;;;4.28;1.10;;;20.10;49.50;;;;;;5055446;28;20036;-58